This is the latest recevied weather packets stored in our database for station/object KK7DS. If no packets are shown the sender has not sent any weather packets the latest 10 day(s).
| Time | Temp. | Humidity | Pressure | Rain* | Wind** | Luminosity | Snow |
|---|---|---|---|---|---|---|---|
| 1777642446 | 10.56° C | 85% | 1016.5 hPa | 0 mm | - | - | - |
| 1777641870 | 10.56° C | 85% | 1016.4 hPa | 0 mm | - | - | - |
| 1777641373 | 11.11° C | 84% | 1016.3 hPa | 0 mm | - | - | - |
| 1777640895 | 11.11° C | 83% | 1016.4 hPa | 0 mm | - | - | - |
| 1777640314 | 11.11° C | 83% | 1016.2 hPa | 0 mm | - | - | - |
| 1777639300 | 11.67° C | 82% | 1016.2 hPa | 0 mm | - | - | - |
| 1777638720 | 11.67° C | 80% | 1016.2 hPa | 0 mm | - | - | - |
| 1777638208 | 12.22° C | 80% | 1016.1 hPa | 0 mm | - | - | - |
| 1777637705 | 12.22° C | 79% | 1016.2 hPa | 0 mm | - | - | - |
| 1777637120 | 12.22° C | 78% | 1016.1 hPa | 0 mm | - | - | - |
| 1777636620 | 12.22° C | 80% | 1016.1 hPa | 0 mm | - | - | - |
| 1777636083 | 12.22° C | 80% | 1016.1 hPa | 0 mm | - | - | - |
| 1777635525 | 12.22° C | 78% | 1016.1 hPa | 0 mm | - | - | - |
| 1777634430 | 12.78° C | 75% | 1016.1 hPa | 0 mm | - | - | - |
| 1777633897 | 12.78° C | 74% | 1016 hPa | 0 mm | - | - | - |
| 1777633325 | 13.33° C | 75% | 1016 hPa | 0 mm | - | - | - |
| 1777632731 | 13.33° C | 75% | 1015.9 hPa | 0 mm | - | - | - |
| 1777632173 | 13.33° C | 76% | 1015.9 hPa | 0 mm | - | - | - |
| 1777631620 | 13.33° C | 76% | 1015.8 hPa | 0 mm | - | - | - |
| 1777631065 | 13.89° C | 75% | 1015.7 hPa | 0 mm | - | - | - |
| 1777630488 | 14.44° C | 73% | 1015.7 hPa | 0 mm | - | - | - |
| 1777630208 | 16.67° C | 56% | 1015.8 hPa | 0 mm | - | - | - |
| 1777629974 | 14.44° C | 73% | 1015.8 hPa | 0 mm | - | - | - |
| 1777629495 | 15° C | 71% | 1015.7 hPa | 0 mm | - | - | - |
| 1777628478 | 15.56° C | 68% | 1015.7 hPa | 0 mm | - | - | - |
* Rain latest hour (hover to see other rain measurements)
** Current wind speed in m/s (hover to see current wind gust speed)